Hundvaag 1 weather for Mar 2003
Month no. 189
Obs.
Da.
Temp. Dew Point Precip. Wind
Speed
Wind gusts Cloud cover Press. Humidity Wind dir. Sunny OPT
01.03.2003 5,4   0,0 17,0   1 1015,9 34,0 135,0   52,5 %
02.03.2003 2,6   0,0 6,0   7 1015,6 60,0 90,0 1 72,5 %
03.03.2003 1,8   0,0 6,0   0 1017,3 69,0 180,0   52,5 %
04.03.2003 -0,1   2,2 12,0   0 1019,4 76,0 135,0   45,0 %
05.03.2003 3,3   0,0 26,0   10 1013,1 70,0 135,0   65,0 %
06.03.2003 4,2   10,3 8,0   0 1010,9 93,0 135,0   45,0 %
07.03.2003 5,0   8,9 12,0   0 1011,9 93,0 180,0 1 47,5 %
08.03.2003 4,8   0,0 14,0   0 1007,6 87,0 135,0   50,0 %
09.03.2003 6,2   1,2 15,0   0 1007,5 87,0 157,5   50,0 %
10.03.2003 5,6   11,1 15,0   1 1005,9 93,0 180,0   45,0 %
11.03.2003 5,9   8,0 15,0   1 1004,1 93,0 202,5   47,5 %
12.03.2003 3,3   0,2 18,0   9 1014,7 81,0 0,0 1 70,0 %
13.03.2003 -0,2   0,0 2,0   10 1026,9 93,0   1 77,5 %
14.03.2003 -1,0   0,0 2,0   10 1028,0 91,0   1 77,5 %
15.03.2003 -2,7   0,0 0,0   2 1028,0 87,0   1 55,0 %
16.03.2003 -1,8   0,0 0,0   5 1027,4 77,0   1 65,0 %
17.03.2003 0,3   0,0 2,0   5 1027,1 100,0   1 67,5 %
18.03.2003 0,9   0,0 5,0   0 1025,4 100,0 45,0 1 52,5 %
19.03.2003 2,8   0,0 10,0   0 1022,9 100,0 0,0 1 52,5 %
20.03.2003 -1,1   0,0 0,0   9 1021,2 100,0     75,0 %
21.03.2003 3,5   0,0 7,0   0 1022,6 75,0 135,0   55,0 %
22.03.2003 4,6   0,0 10,0   0 1021,4 81,0 157,5 1 52,5 %
23.03.2003 6,2   0,0 12,0   0 1020,0 87,0 157,5   52,5 %
24.03.2003 3,3   0,0 0,0   0 1019,3 100,0   1 57,5 %
25.03.2003 0,3   0,0 5,0   0 1019,4 100,0 45,0 1 52,5 %
26.03.2003 -0,7   0,0 3,0   0 1019,8 100,0 157,5 1 52,5 %
27.03.2003 2,2   0,0 7,0   0 1018,7 100,0 157,5   52,5 %
28.03.2003 3,1   0,0 2,0   0 1016,6 100,0 247,5 1 57,5 %
29.03.2003 4,9   0,0 13,0   0 1012,7 100,0 180,0   50,0 %
30.03.2003 4,7   3,6 15,0   4 1007,9 87,0 247,5 1 55,0 %
31.03.2003 1,7   5,2 9,0   3 1016,8 100,0 337,5 1 55,0 %
Avrg/Sum 2,5   50,7 8,6   2,5 1017,6 87,5 147,2 17 56,7 %